Galicia — ECEC — position and weather

sailwx.info

Track history (hours):
 
Tides and Currents Weather Stations Pressure Air Temp Water Temp Dewpoint Dewpoint Depression Visibility Wind Speed Wind Dir Waves Ship Positions

Galicia

Last reported at 2014-Dec-13 01:34 UTC. Time now 2014-Dec-20 18:43 UTC.
Position N 50°35' E 000°19'.

Length 149 m; draft 5.6 m.

Type: Cargo ship. MMSI: 224548000.

Date/timePositionNaut miles runAvg speedWind from/ knotsBaromVisibWave heightAir tempDewpointWater temp
2014-Dec-13 01:34N 50°35' E 000°19'1413.9
2014-Dec-13 00:33N 50°40' E 000°39'1514.9
2014-Dec-12 23:33N 50°49' E 000°58'1716.5
2014-Dec-12 22:33N 50°59' E 001°18'1717.3
2014-Dec-12 21:34N 51°10' E 001°40'1616.1
2014-Dec-12 20:34N 51°22' E 001°56'1313.0
2014-Dec-12 19:33N 51°20' E 002°17'1414.1
2014-Dec-12 18:33N 51°23' E 002°39'1311.4
2014-Dec-12 17:22N 51°24' E 003°01'9 8.5
2014-Dec-12 16:22N 51°20' E 003°13'1 1.7
2014-Dec-12 15:33N 51°19' E 003°14'0 0.3
2014-Dec-12 14:33N 51°19' E 003°14'0 0.0
2014-Dec-12 13:30N 51°19' E 003°14'0 0.0
2014-Dec-12 12:26N 51°19' E 003°14'0 0.0
2014-Dec-12 11:32N 51°18' E 003°14'0 0.0
2014-Dec-12 10:32N 51°19' E 003°14'0 0.0
2014-Dec-12 09:32N 51°19' E 003°14'0 0.0
2014-Dec-12 08:29N 51°19' E 003°14'0 0.0
2014-Dec-12 07:32N 51°19' E 003°14'0 0.0
2014-Dec-12 06:32N 51°19' E 003°14'0 0.0
2014-Dec-12 05:32N 51°18' E 003°14'0 0.0
2014-Dec-12 04:32N 51°19' E 003°14'0 0.0
2014-Dec-12 03:32N 51°19' E 003°14'0 0.0
2014-Dec-12 02:29N 51°19' E 003°14'0 0.0
2014-Dec-12 01:32N 51°19' E 003°14'0 0.0
2014-Dec-11 22:14N 51°19' E 003°14'0 0.0
2014-Dec-11 21:20N 51°19' E 003°14'0 0.0
2014-Dec-11 20:32N 51°19' E 003°14'0 0.0
2014-Dec-11 19:29N 51°18' E 003°14'0 0.0
2014-Dec-11 18:29N 51°18' E 003°14'0 0.0
2014-Dec-11 17:14N 51°19' E 003°14'0 0.0
2014-Dec-11 16:32N 51°18' E 003°14'0 0.0
2014-Dec-11 15:29N 51°19' E 003°14'0 0.0
2014-Dec-11 14:29N 51°19' E 003°14'0 0.0
2014-Dec-11 13:11N 51°19' E 003°14'0 0.0
2014-Dec-11 12:32N 51°19' E 003°14'0 0.0
2014-Dec-11 11:32N 51°19' E 003°14'0 0.0
2014-Dec-11 10:32N 51°19' E 003°14'0 0.0
2014-Dec-11 09:32N 51°19' E 003°14'0 0.0
2014-Dec-11 08:29N 51°19' E 003°14'0 0.0
2014-Dec-11 07:26N 51°19' E 003°14'0 0.0
2014-Dec-11 06:26N 51°19' E 003°14'0 0.0
2014-Dec-11 05:20N 51°18' E 003°14'0 0.0
2014-Dec-11 04:28N 51°19' E 003°14'0 0.0
2014-Dec-11 03:31N 51°19' E 003°14'0 0.0
2014-Dec-11 02:28N 51°19' E 003°14'0 0.0
2014-Dec-11 01:31N 51°19' E 003°14'0 0.0
2014-Dec-11 00:16N 51°19' E 003°14'0 0.0
2014-Dec-10 23:31N 51°19' E 003°14'0 0.0
2014-Dec-10 22:16N 51°19' E 003°14'1 0.6
2014-Dec-10 20:33N 51°20' E 003°13'1 0.6
2014-Dec-10 19:33N 51°20' E 003°13'8 8.3
2014-Dec-10 18:33N 51°24' E 003°01'1414.3
2014-Dec-10 17:33N 51°22' E 002°38'1716.9
2014-Dec-10 16:34N 51°19' E 002°12'1515.2
2014-Dec-10 15:33N 51°28' E 001°52'1515.1
2014-Dec-10 14:33N 51°27' E 001°28'1414.3
2014-Dec-10 13:33N 51°29' E 001°05'1313.3
2014-Dec-10 12:33N 51°27' E 000°45'0 0.1
2014-Dec-10 11:30N 51°27' E 000°45'0 0.0
2014-Dec-10 10:33N 51°27' E 000°45'0 0.0
2014-Dec-10 09:33N 51°27' E 000°45'0 0.0
2014-Dec-10 08:32N 51°27' E 000°45'0 0.0
2014-Dec-10 07:32N 51°27' E 000°45'0 0.0
2014-Dec-10 06:29N 51°27' E 000°45'0 0.0
2014-Dec-10 05:32N 51°27' E 000°45'0 0.0
2014-Dec-10 04:32N 51°27' E 000°45'0 0.0
2014-Dec-10 03:32N 51°27' E 000°45'0 0.0
2014-Dec-10 02:32N 51°27' E 000°45'0 0.0
2014-Dec-10 01:32N 51°27' E 000°45'0 0.0
2014-Dec-10 00:32N 51°27' E 000°45'0 0.0
2014-Dec-09 23:32N 51°27' E 000°45'0 0.0
2014-Dec-09 22:32N 51°27' E 000°45'0 0.0
2014-Dec-09 21:32N 51°27' E 000°45'0 0.0
2014-Dec-09 20:33N 51°27' E 000°45'0 0.0
2014-Dec-09 19:33N 51°27' E 000°45'0 0.0
2014-Dec-09 18:33N 51°27' E 000°45'4 3.8
2014-Dec-09 17:33N 51°28' E 000°50'1312.7
2014-Dec-09 16:33N 51°29' E 001°11'1313.5
2014-Dec-09 15:33N 51°26' E 001°31'1111.4
2014-Dec-09 14:33N 51°35' E 001°42'9 8.9
2014-Dec-09 13:33N 51°44' E 001°44'1212.1
2014-Dec-09 12:33N 51°56' E 001°46'1615.8
2014-Dec-09 11:33N 52°12' E 001°52'1616.5
2014-Dec-09 10:33N 52°28' E 001°58'1615.9
2014-Dec-09 09:32N 52°44' E 002°02'1717.5
2014-Dec-09 08:33N 52°54' E 001°40'1716.5
2014-Dec-09 07:33N 53°07' E 001°21'3316.4
2014-Dec-09 05:33N 53°35' E 000°54'1716.5
2014-Dec-09 04:33N 53°49' E 000°40'1615.9
2014-Dec-09 03:33N 54°02' E 000°25'1515.4
2014-Dec-09 02:33N 54°13' E 000°06'1514.8
2014-Dec-09 01:33N 54°23' W 000°12'1414.2
2014-Dec-09 00:33N 54°33' W 000°30'1414.0
2014-Dec-08 23:33N 54°43' W 000°47'1414.1
2014-Dec-08 22:33N 54°53' W 001°05'10 1.3
2014-Dec-08 14:33N 54°60' W 001°18'1413.5
2014-Dec-08 13:32N 54°50' W 001°01'1414.0
2014-Dec-08 12:33N 54°41' W 000°44'1515.0
2014-Dec-08 11:33N 54°30' W 000°25'1615.9
2014-Dec-08 10:34N 54°19' W 000°05'1615.9
2014-Dec-08 09:34N 54°08' E 000°14'1515.1
2014-Dec-08 08:34N 53°57' E 000°32'5714.3
2014-Dec-08 04:33N 53°08' E 001°20'1616.5
2014-Dec-08 03:33N 52°55' E 001°37'1717.4
2014-Dec-08 02:33N 52°45' E 002°00'1716.5
2014-Dec-08 01:33N 52°28' E 001°60'1716.9
2014-Dec-08 00:33N 52°11' E 001°54'1515.3
2014-Dec-07 23:33N 51°56' E 001°49'1414.0
2014-Dec-07 22:33N 51°43' E 001°49'1313.3
2014-Dec-07 21:33N 51°29' E 001°46'1312.6
2014-Dec-07 20:33N 51°17' E 001°41'1110.5
2014-Dec-07 19:33N 51°07' E 001°40'1312.6
2014-Dec-07 18:34N 50°56' E 001°29'  
2014-Dec-05 03:32N 39°08' W 009°50'1414.2
2014-Dec-05 02:33N 38°54' W 009°51'1414.3
2014-Dec-05 01:33N 38°40' W 009°50'1414.1
2014-Dec-05 00:33N 38°26' W 009°46'1514.1
2014-Dec-04 23:28N 38°11' W 009°42'1313.8
2014-Dec-04 22:33N 37°59' W 009°38'1413.9
2014-Dec-04 21:33N 37°45' W 009°34'22113.0
2014-Dec-04 04:33N 35°58' W 005°33'1313.0
2014-Dec-04 03:33N 36°02' W 005°18'22114.7
2014-Dec-03 12:29N 37°17' W 000°58'1617.6
2014-Dec-03 11:33N 37°28' W 000°43'1817.7
2014-Dec-03 10:33N 37°41' W 000°28'1717.1
2014-Dec-03 09:32N 37°55' W 000°16'  
Track history (hours):
 
Tides and Currents Weather Stations Pressure Air Temp Water Temp Dewpoint Dewpoint Depression Visibility Wind Speed Wind Dir Waves Ship Positions

Galicia

Last reported at 2014-Dec-13 01:34 UTC. Time now 2014-Dec-20 18:43 UTC.
Position N 50°35' E 000°19'.

Length 149 m; draft 5.6 m.

Type: Cargo ship. MMSI: 224548000.

Date/timePositionNaut miles runAvg speedWind from/ knotsBaromVisibWave heightAir tempDewpointWater temp
2014-Dec-13 01:34N 50°35' E 000°19'1413.9
2014-Dec-13 00:33N 50°40' E 000°39'1514.9
2014-Dec-12 23:33N 50°49' E 000°58'1716.5
2014-Dec-12 22:33N 50°59' E 001°18'1717.3
2014-Dec-12 21:34N 51°10' E 001°40'1616.1
2014-Dec-12 20:34N 51°22' E 001°56'1313.0
2014-Dec-12 19:33N 51°20' E 002°17'1414.1
2014-Dec-12 18:33N 51°23' E 002°39'1311.4
2014-Dec-12 17:22N 51°24' E 003°01'9 8.5
2014-Dec-12 16:22N 51°20' E 003°13'1 1.7
2014-Dec-12 15:33N 51°19' E 003°14'0 0.3
2014-Dec-12 14:33N 51°19' E 003°14'0 0.0
2014-Dec-12 13:30N 51°19' E 003°14'0 0.0
2014-Dec-12 12:26N 51°19' E 003°14'0 0.0
2014-Dec-12 11:32N 51°18' E 003°14'0 0.0
2014-Dec-12 10:32N 51°19' E 003°14'0 0.0
2014-Dec-12 09:32N 51°19' E 003°14'0 0.0
2014-Dec-12 08:29N 51°19' E 003°14'0 0.0
2014-Dec-12 07:32N 51°19' E 003°14'0 0.0
2014-Dec-12 06:32N 51°19' E 003°14'0 0.0
2014-Dec-12 05:32N 51°18' E 003°14'0 0.0
2014-Dec-12 04:32N 51°19' E 003°14'0 0.0
2014-Dec-12 03:32N 51°19' E 003°14'0 0.0
2014-Dec-12 02:29N 51°19' E 003°14'0 0.0
2014-Dec-12 01:32N 51°19' E 003°14'0 0.0
2014-Dec-11 22:14N 51°19' E 003°14'0 0.0
2014-Dec-11 21:20N 51°19' E 003°14'0 0.0
2014-Dec-11 20:32N 51°19' E 003°14'0 0.0
2014-Dec-11 19:29N 51°18' E 003°14'0 0.0
2014-Dec-11 18:29N 51°18' E 003°14'0 0.0
2014-Dec-11 17:14N 51°19' E 003°14'0 0.0
2014-Dec-11 16:32N 51°18' E 003°14'0 0.0
2014-Dec-11 15:29N 51°19' E 003°14'0 0.0
2014-Dec-11 14:29N 51°19' E 003°14'0 0.0
2014-Dec-11 13:11N 51°19' E 003°14'0 0.0
2014-Dec-11 12:32N 51°19' E 003°14'0 0.0
2014-Dec-11 11:32N 51°19' E 003°14'0 0.0
2014-Dec-11 10:32N 51°19' E 003°14'0 0.0
2014-Dec-11 09:32N 51°19' E 003°14'0 0.0
2014-Dec-11 08:29N 51°19' E 003°14'0 0.0
2014-Dec-11 07:26N 51°19' E 003°14'0 0.0
2014-Dec-11 06:26N 51°19' E 003°14'0 0.0
2014-Dec-11 05:20N 51°18' E 003°14'0 0.0
2014-Dec-11 04:28N 51°19' E 003°14'0 0.0
2014-Dec-11 03:31N 51°19' E 003°14'0 0.0
2014-Dec-11 02:28N 51°19' E 003°14'0 0.0
2014-Dec-11 01:31N 51°19' E 003°14'0 0.0
2014-Dec-11 00:16N 51°19' E 003°14'0 0.0
2014-Dec-10 23:31N 51°19' E 003°14'0 0.0
2014-Dec-10 22:16N 51°19' E 003°14'1 0.6
2014-Dec-10 20:33N 51°20' E 003°13'1 0.6
2014-Dec-10 19:33N 51°20' E 003°13'8 8.3
2014-Dec-10 18:33N 51°24' E 003°01'1414.3
2014-Dec-10 17:33N 51°22' E 002°38'1716.9
2014-Dec-10 16:34N 51°19' E 002°12'1515.2
2014-Dec-10 15:33N 51°28' E 001°52'1515.1
2014-Dec-10 14:33N 51°27' E 001°28'1414.3
2014-Dec-10 13:33N 51°29' E 001°05'1313.3
2014-Dec-10 12:33N 51°27' E 000°45'0 0.1
2014-Dec-10 11:30N 51°27' E 000°45'0 0.0
2014-Dec-10 10:33N 51°27' E 000°45'0 0.0
2014-Dec-10 09:33N 51°27' E 000°45'0 0.0
2014-Dec-10 08:32N 51°27' E 000°45'0 0.0
2014-Dec-10 07:32N 51°27' E 000°45'0 0.0
2014-Dec-10 06:29N 51°27' E 000°45'0 0.0
2014-Dec-10 05:32N 51°27' E 000°45'0 0.0
2014-Dec-10 04:32N 51°27' E 000°45'0 0.0
2014-Dec-10 03:32N 51°27' E 000°45'0 0.0
2014-Dec-10 02:32N 51°27' E 000°45'0 0.0
2014-Dec-10 01:32N 51°27' E 000°45'0 0.0
2014-Dec-10 00:32N 51°27' E 000°45'0 0.0
2014-Dec-09 23:32N 51°27' E 000°45'0 0.0
2014-Dec-09 22:32N 51°27' E 000°45'0 0.0
2014-Dec-09 21:32N 51°27' E 000°45'0 0.0
2014-Dec-09 20:33N 51°27' E 000°45'0 0.0
2014-Dec-09 19:33N 51°27' E 000°45'0 0.0
2014-Dec-09 18:33N 51°27' E 000°45'4 3.8
2014-Dec-09 17:33N 51°28' E 000°50'1312.7
2014-Dec-09 16:33N 51°29' E 001°11'1313.5
2014-Dec-09 15:33N 51°26' E 001°31'1111.4
2014-Dec-09 14:33N 51°35' E 001°42'9 8.9
2014-Dec-09 13:33N 51°44' E 001°44'1212.1
2014-Dec-09 12:33N 51°56' E 001°46'1615.8
2014-Dec-09 11:33N 52°12' E 001°52'1616.5
2014-Dec-09 10:33N 52°28' E 001°58'1615.9
2014-Dec-09 09:32N 52°44' E 002°02'1717.5
2014-Dec-09 08:33N 52°54' E 001°40'1716.5
2014-Dec-09 07:33N 53°07' E 001°21'3316.4
2014-Dec-09 05:33N 53°35' E 000°54'1716.5
2014-Dec-09 04:33N 53°49' E 000°40'1615.9
2014-Dec-09 03:33N 54°02' E 000°25'1515.4
2014-Dec-09 02:33N 54°13' E 000°06'1514.8
2014-Dec-09 01:33N 54°23' W 000°12'1414.2
2014-Dec-09 00:33N 54°33' W 000°30'1414.0
2014-Dec-08 23:33N 54°43' W 000°47'1414.1
2014-Dec-08 22:33N 54°53' W 001°05'10 1.3
2014-Dec-08 14:33N 54°60' W 001°18'1413.5
2014-Dec-08 13:32N 54°50' W 001°01'1414.0
2014-Dec-08 12:33N 54°41' W 000°44'1515.0
2014-Dec-08 11:33N 54°30' W 000°25'1615.9
2014-Dec-08 10:34N 54°19' W 000°05'1615.9
2014-Dec-08 09:34N 54°08' E 000°14'1515.1
2014-Dec-08 08:34N 53°57' E 000°32'5714.3
2014-Dec-08 04:33N 53°08' E 001°20'1616.5
2014-Dec-08 03:33N 52°55' E 001°37'1717.4
2014-Dec-08 02:33N 52°45' E 002°00'1716.5
2014-Dec-08 01:33N 52°28' E 001°60'1716.9
2014-Dec-08 00:33N 52°11' E 001°54'1515.3
2014-Dec-07 23:33N 51°56' E 001°49'1414.0
2014-Dec-07 22:33N 51°43' E 001°49'1313.3
2014-Dec-07 21:33N 51°29' E 001°46'1312.6
2014-Dec-07 20:33N 51°17' E 001°41'1110.5
2014-Dec-07 19:33N 51°07' E 001°40'1312.6
2014-Dec-07 18:34N 50°56' E 001°29'  
2014-Dec-05 03:32N 39°08' W 009°50'1414.2
2014-Dec-05 02:33N 38°54' W 009°51'1414.3
2014-Dec-05 01:33N 38°40' W 009°50'1414.1
2014-Dec-05 00:33N 38°26' W 009°46'1514.1
2014-Dec-04 23:28N 38°11' W 009°42'1313.8
2014-Dec-04 22:33N 37°59' W 009°38'1413.9
2014-Dec-04 21:33N 37°45' W 009°34'22113.0
2014-Dec-04 04:33N 35°58' W 005°33'1313.0
2014-Dec-04 03:33N 36°02' W 005°18'22114.7
2014-Dec-03 12:29N 37°17' W 000°58'1617.6
2014-Dec-03 11:33N 37°28' W 000°43'1817.7
2014-Dec-03 10:33N 37°41' W 000°28'1717.1
2014-Dec-03 09:32N 37°55' W 000°16'  

Dump ship's entire track history